• Join FlightAware (Why Join?)
  • Login
  • US Flag 
03:32AM EST


 

Airport Tracker/Info


-or-


 

Live Flight TrackerFlight Track Log ✈ N539JB ✈ 26-Jul-2013 ✈ KHTO - KACK

Flight Track Log - Related Links

Times and Time Zones

All times are in EDT time to prevent confusion due to time zone crossing. See the N539JB flight status page for this flight to view local times or setup timezone preferences in your user account.

Time Position Orientation Groundspeed Altitude Reporting Facility
EDT Latitude Longitude Course Direction KTS MPH feet Rate Location/Type
05:43PM 40.9000 -72.3167 220° Southwest 101 116 2,000  Level New York TRACON
05:44PM 40.9000 -72.2833 90° East 99 114 2,400 420 Climbing New York TRACON
05:45PM 40.9167 -72.2333 66° East 107 123 2,900 540 Climbing New York TRACON
05:46PM 40.9167 -72.2000 90° East 101 116 3,500 540 Climbing New York TRACON
05:47PM 40.9333 -72.1667 56° Northeast 105 121 4,000 480 Climbing New York TRACON
05:49PM 40.9225 -72.1186 107° East 124 143 5,000 480 Climbing Boston Center
05:50PM 40.8972 -72.0886 138° Southeast 94 108 5,600 480 Climbing Boston Center
05:51PM 40.8992 -72.0556 86° East 156 180 6,100 360 Climbing Boston Center
05:52PM 40.9158 -72.0200 58° Northeast 118 136 6,400 240 Climbing Boston Center
05:53PM 40.9322 -71.9786 62° Northeast 127 146 6,700 240 Climbing Boston Center
05:54PM 40.9508 -71.9344 61° Northeast 137 158 6,900 180 Climbing Boston Center
05:55PM 40.9736 -71.8847 59° Northeast 147 169 7,100 60 Climbing Boston Center
05:56PM 41.0006 -71.8433 49° Northeast 144 166 7,100  Level Boston Center
05:57PM 41.0231 -71.7908 60° Northeast 163 188 7,100 -60 Level Boston Center
05:58PM 41.0478 -71.7467 53° Northeast 155 178 7,000  Descending Boston Center
05:59PM 41.0706 -71.7022 56° Northeast 152 175 7,100  Climbing Boston Center
06:00PM 41.0994 -71.6606 47° Northeast 144 166 7,000 -60 Descending Boston Center
06:01PM 41.1219 -71.6217 52° Northeast 135 155 7,000  Level Boston Center
06:02PM 41.1447 -71.5800 54° Northeast 134 154 7,000  Level Boston Center
06:03PM 41.1444 -71.5442 91° East 128 147 7,100  Climbing Boston Center
06:04PM 41.1128 -71.5228 153° Southeast 121 139 7,100  Level Boston Center
06:05PM 41.0794 -71.5011 154° Southeast 129 148 7,100 -60 Level Boston Center
06:06PM 41.0478 -71.4769 150° Southeast 130 150 7,000 -60 Descending Boston Center
06:07PM 41.0411 -71.4300 101° East 140 161 7,000  Level Boston Center
06:08PM 41.0469 -71.3806 81° East 137 158 7,000  Level Boston Center
06:10PM 41.0531 -71.3313 53° Northeast  Level FlightAware Approximate
06:17PM 41.2000 -71.0667 54° Northeast  Level FlightAware Approximate
06:18PM 41.1857 -71.0238 114° Southeast  Level FlightAware Approximate
06:19PM 41.1681 -70.9831 121° Southeast  Level FlightAware Approximate
06:20PM 41.1499 -70.9429 121° Southeast  Level FlightAware Approximate
06:21PM 41.1316 -70.9027 121° Southeast  Level FlightAware Approximate
06:22PM 41.1133 -70.8625 121° Southeast  Level FlightAware Approximate
06:23PM 41.1028 -70.8211 73° East  Level FlightAware Approximate
06:24PM 41.1132 -70.7762 73° East  Level FlightAware Approximate
06:25PM 41.1236 -70.7314 73° East  Level FlightAware Approximate
06:26PM 41.1339 -70.6865 73° East  Level FlightAware Approximate
06:27PM 41.1443 -70.6416 73° East  Level FlightAware Approximate
06:28PM 41.1540 -70.5964 75° East  Level FlightAware Approximate
06:29PM 41.1631 -70.5510 75° East  Level FlightAware Approximate
06:30PM 41.1713 -70.5054 77° East  Level FlightAware Approximate
06:31PM 41.1790 -70.4595 78° East  Level FlightAware Approximate
06:32PM 41.1868 -70.4137 77° East  Level FlightAware Approximate
06:33PM 41.1949 -70.3680 77° East  Level FlightAware Approximate
06:34PM 41.2030 -70.3222 77° East  Level FlightAware Approximate
06:35PM 41.2111 -70.2765 77° East  Level FlightAware Approximate
06:36PM 41.2192 -70.2307 77° East  Level FlightAware Approximate
06:37PM 41.2272 -70.1849 77° East  Level FlightAware Approximate
06:38PM 41.2351 -70.1391 77° East  Level FlightAware Approximate
06:39PM 41.2428 -70.0932 77° East  Level FlightAware Approximate
06:40PM 41.2500 -70.0500 77° East  Level FlightAware Approximate
06:41PM 41.2531 -70.0603 77° East  Level Estimated
06:42PM 41.2531 -70.0603 77° East  Level Estimated
06:43PM 41.2531 -70.0603 77° East  Level Estimated
06:44PM 41.2531 -70.0603 77° East  Level Estimated
06:45PM 41.2531 -70.0603 77° East  Level Estimated